Flight Track Log - Related Links

Times and Time Zones

All times are in EDT time to prevent confusion due to time zone crossing. See the EJA951 flight status page for this flight to view local times or setup timezone preferences in your user account.

Time Position Orientation Groundspeed Altitude Reporting Facility
EDT Latitude Longitude Course Direction KTS MPH feet Rate Location/Type
Fri 07:30:50 AM 36.0686 -115.1733 216° Southwest 180 207 3,200  Level Los Angeles Center
Fri 07:30:56 AM 36.0594 -115.1817 216° Southwest 208 239 3,600 3,123 Climbing Los Angeles Center
Fri 07:32:03 AM 36.0031 -115.2267 213° Southwest 256 295 7,000 2,672 Climbing Los Angeles Center
Fri 07:33:04 AM 35.9403 -115.2292 182° South 277 319 9,300 1,934 Climbing Los Angeles Center
Fri 07:34:04 AM 35.9425 -115.1378 88° East 293 337 10,900 1,400 Climbing Los Angeles Center
Fri 07:35:04 AM 35.9428 -115.0172 90° East 344 396 12,100 1,400 Climbing Los Angeles Center
Fri 07:36:04 AM 35.9408 -114.8911 91° East 365 420 13,700 1,785 Climbing Los Angeles Center
Fri 07:37:05 AM 35.9389 -114.7589 91° East 380 437 15,700 1,686 Climbing Los Angeles Center
Fri 07:38:05 AM 35.9369 -114.6278 91° East 382 440 17,100 1,550 Climbing Los Angeles Center
Fri 07:39:05 AM 35.9342 -114.4656 91° East 393 452 18,800 1,600 Climbing Los Angeles Center
Fri 07:40:05 AM 35.9311 -114.3283 92° East 398 458 20,300 1,438 Climbing Los Angeles Center
Fri 07:41:06 AM 35.9289 -114.1856 91° East 414 476 21,700 1,488 Climbing Los Angeles Center
Fri 07:42:06 AM 35.9256 -114.0414 92° East 420 483 23,300 1,550 Climbing Los Angeles Center
Fri 07:43:06 AM 35.9214 -113.8933 92° East 430 495 24,800 1,600 Climbing Los Angeles Center
Fri 07:44:06 AM 35.9225 -113.7428 89° East 437 503 26,500 1,289 Climbing Los Angeles Center
Fri 07:45:07 AM 35.9269 -113.5914 88° East 440 506 27,400 694 Climbing Los Angeles Center
Fri 07:46:07 AM 35.9314 -113.4592 88° East 458 527 27,900 650 Climbing Los Angeles Center
Fri 07:47:07 AM 35.9367 -113.2989 88° East 466 536 28,700 650 Climbing Los Angeles Center
Fri 07:48:07 AM 35.9414 -113.1342 88° East 476 548 29,200 645 Climbing Los Angeles Center
Fri 07:49:08 AM 35.9450 -112.9656 88° East 487 560 30,000 793 Climbing Los Angeles Center
Fri 07:50:08 AM 35.9514 -112.7672 88° East 496 571 30,800 900 Climbing Los Angeles Center
Fri 07:51:08 AM 35.9542 -112.6117 89° East 501 577 31,800 1,150 Climbing Los Angeles Center
Fri 07:52:08 AM 35.9578 -112.4414 88° East 500 575 33,100 1,289 Climbing Los Angeles Center
Fri 07:53:09 AM 35.9614 -112.2722 88° East 497 572 34,400 1,339 Climbing Los Angeles Center
Fri 07:54:09 AM 35.9633 -112.1100 89° East 499 574 35,800 1,500 Climbing Los Angeles Center
Fri 07:55:09 AM 35.9678 -111.9331 88° East 496 571 37,400 1,800 Climbing Los Angeles Center
Fri 07:56:09 AM 35.9700 -111.7683 89° East 486 559 39,400 1,736 Climbing Los Angeles Center
Fri 07:57:10 AM 35.9714 -111.6092 89° East 472 543 40,900 914 Climbing Los Angeles Center
Fri 07:57:54 AM 35.9750 -111.4817 88° East 471 542 41,000 57 Climbing Denver Center
Fri 07:58:55 AM 35.9767 -111.3122 89° East 487 560 41,000  Level Denver Center
Fri 07:59:55 AM 35.9786 -111.1433 89° East 494 568 41,000  Level Denver Center
Fri 08:00:56 AM 35.9797 -110.9767 89° East 490 564 41,000  Level Denver Center
Fri 08:01:56 AM 35.9825 -110.8094 89° East 489 563 41,000  Level Denver Center
Fri 08:02:56 AM 35.9833 -110.6411 90° East 491 565 41,000  Level Denver Center
Fri 08:03:57 AM 35.9844 -110.4722 89° East 493 567 41,000  Level Denver Center
Fri 08:04:57 AM 35.9847 -110.3028 90° East 494 568 41,000  Level Denver Center
Fri 08:05:57 AM 35.9847 -110.1122 90° East 495 570 41,000  Level Denver Center
Fri 08:06:58 AM 35.9858 -109.9492 89° East 496 571 41,000  Level Denver Center
Fri 08:07:44 AM 35.9858 -109.8119 90° East 497 572 41,000  Level Albuquerque Center
Fri 08:08:44 AM 35.9842 -109.6475 91° East 500 575 41,000  Level Albuquerque Center
Fri 08:09:45 AM 35.9842 -109.4581 90° East 498 573 41,000  Level Albuquerque Center
Fri 08:10:59 AM 35.9825 -109.2678 91° East 498 573 41,000  Level Denver Center
Fri 08:11:45 AM 35.9828 -109.1394 90° East 501 577 41,000  Level Albuquerque Center
Fri 08:12:46 AM 35.9825 -108.9650 90° East 507 583 41,000  Level Albuquerque Center
Fri 08:13:46 AM 35.9797 -108.7928 91° East 505 581 41,000  Level Albuquerque Center
Fri 08:14:46 AM 35.9792 -108.6194 90° East 505 581 41,000  Level Albuquerque Center
Fri 08:15:47 AM 35.9769 -108.4211 91° East 505 581 41,000  Level Albuquerque Center
Fri 08:16:47 AM 35.9747 -108.2539 91° East 507 583 41,000  Level Albuquerque Center
Fri 08:17:47 AM 35.9717 -108.0881 91° East 507 583 41,000  Level Albuquerque Center
Fri 08:18:48 AM 35.9689 -107.8944 91° East 506 582 41,000  Level Albuquerque Center
Fri 08:19:48 AM 35.9650 -107.7272 92° East 507 583 41,000  Level Albuquerque Center
Fri 08:20:49 AM 35.9622 -107.5614 91° East 507 583 41,000  Level Albuquerque Center
Fri 08:21:49 AM 35.9592 -107.3942 91° East 508 585 41,000  Level Albuquerque Center
Fri 08:22:49 AM 35.9553 -107.2008 91° East 506 582 41,000  Level Albuquerque Center
Fri 08:23:50 AM 35.9522 -107.0347 91° East 507 583 41,000  Level Albuquerque Center
Fri 08:24:50 AM 35.9478 -106.8686 92° East 507 583 41,000  Level Albuquerque Center
Fri 08:25:51 AM 35.9439 -106.6739 91° East 508 585 41,000  Level Albuquerque Center
Fri 08:26:51 AM 35.9389 -106.5086 92° East 509 586 41,000  Level Albuquerque Center
Fri 08:27:51 AM 35.9342 -106.3289 92° East 516 594 41,000  Level Albuquerque Center
Fri 08:28:52 AM 35.9286 -106.1517 92° East 514 592 41,000  Level Albuquerque Center
Fri 08:29:53 AM 35.9233 -105.9731 92° East 513 590 41,000  Level Albuquerque Center
Fri 08:30:53 AM 35.9172 -105.7950 92° East 513 590 41,000  Level Albuquerque Center
Fri 08:31:53 AM 35.9106 -105.6192 93° East 511 588 41,000  Level Albuquerque Center
Fri 08:32:54 AM 35.9061 -105.4519 92° East 508 585 41,000  Level Albuquerque Center
Fri 08:33:54 AM 35.8994 -105.2761 93° East 507 583 41,000  Level Albuquerque Center
Fri 08:34:55 AM 35.8917 -105.0989 93° East 511 588 41,000  Level Albuquerque Center
Fri 08:35:55 AM 35.8847 -104.9231 93° East 510 587 41,000  Level Albuquerque Center
Fri 08:36:56 AM 35.8769 -104.7456 93° East 512 589 41,000  Level Albuquerque Center
Fri 08:37:56 AM 35.8689 -104.5681 93° East 512 589 41,000  Level Albuquerque Center
Fri 08:38:57 AM 35.8611 -104.3936 93° East 508 585 41,000  Level Albuquerque Center
Fri 08:39:57 AM 35.8531 -104.2169 93° East 507 583 41,000  Level Albuquerque Center
Fri 08:40:58 AM 35.8444 -104.0406 93° East 508 585 41,000  Level Albuquerque Center
Fri 08:41:58 AM 35.8356 -103.8628 93° East 511 588 41,000  Level Albuquerque Center
Fri 08:42:59 AM 35.8272 -103.6844 93° East 513 590 41,000  Level Albuquerque Center
Fri 08:43:59 AM 35.8175 -103.5072 94° East 512 589 41,000  Level Albuquerque Center
Fri 08:45:00 AM 35.8083 -103.3317 94° East 510 587 41,000  Level Albuquerque Center
Fri 08:46:00 AM 35.7986 -103.1536 94° East 512 589 41,000  Level Albuquerque Center
Fri 08:47:01 AM 35.7886 -102.9761 94° East 514 592 41,000  Level Albuquerque Center
Fri 08:48:01 AM 35.7783 -102.8208 95° East 514 592 41,000  Level Albuquerque Center
Fri 08:49:02 AM 35.7683 -102.6439 94° East 517 595 41,000  Level Albuquerque Center
Fri 08:50:02 AM 35.7578 -102.4675 94° East 517 595 41,000  Level Albuquerque Center
Fri 08:51:03 AM 35.7458 -102.2911 95° East 517 595 41,000  Level Albuquerque Center
Fri 08:52:04 AM 35.7358 -102.1147 94° East 517 595 41,000  Level Albuquerque Center
Fri 08:53:04 AM 35.7244 -101.9367 94° East 518 596 41,000  Level Albuquerque Center
Fri 08:54:05 AM 35.7122 -101.7569 95° East 522 601 41,000  Level Albuquerque Center
Fri 08:55:05 AM 35.7000 -101.5772 95° East 522 601 41,000  Level Albuquerque Center
Fri 08:56:06 AM 35.6875 -101.3958 95° East 527 606 41,000  Level Albuquerque Center
Fri 08:57:07 AM 35.6750 -101.2150 95° East 527 606 41,000  Level Albuquerque Center
Fri 08:58:07 AM 35.6611 -101.0353 95° East 527 606 41,000  Level Albuquerque Center
Fri 08:59:08 AM 35.6481 -100.8553 95° East 528 608 41,000  Level Albuquerque Center
Fri 09:00:08 AM 35.6336 -100.6750 96° East 529 609 41,000  Level Albuquerque Center
Fri 09:01:09 AM 35.6178 -100.4669 95° East 530 610 41,000  Level Albuquerque Center
Fri 09:02:10 AM 35.6031 -100.2869 96° East 530 610 41,000  Level Albuquerque Center
Fri 09:03:10 AM 35.5878 -100.1064 96° East 532 612 41,000  Level Albuquerque Center
Fri 09:04:11 AM 35.5739 -99.9272 95° East 530 610 41,000  Level Albuquerque Center
Fri 09:05:12 AM 35.5586 -99.7469 96° East 531 611 41,000  Level Albuquerque Center
Fri 09:06:12 AM 35.5433 -99.5678 96° East 531 611 41,000  Level Albuquerque Center
Fri 09:07:13 AM 35.5292 -99.3892 96° East 530 610 41,000  Level Albuquerque Center
Fri 09:08:14 AM 35.5136 -99.2117 96° East 529 609 41,000  Level Albuquerque Center
Fri 09:09:14 AM 35.4969 -99.0336 97° East 528 608 41,000  Level Albuquerque Center
Fri 09:10:15 AM 35.4806 -98.8556 96° East 528 608 41,000  Level Albuquerque Center
Fri 09:11:16 AM 35.4644 -98.6781 96° East 527 606 41,000  Level Albuquerque Center
Fri 09:12:32 AM 35.4417 -98.4456 97° East 520 598 41,000  Level Fort Worth Center
Fri 09:13:32 AM 35.4242 -98.2644 97° East 515 593 41,000  Level Fort Worth Center
Fri 09:14:32 AM 35.4064 -98.0886 97° East 526 605 41,000  Level Fort Worth Center
Fri 09:15:32 AM 35.3886 -97.9100 97° East 526 605 41,000  Level Fort Worth Center
Fri 09:16:32 AM 35.3703 -97.7319 97° East 521 600 41,000  Level Fort Worth Center
Fri 09:17:32 AM 35.3497 -97.5586 98° East 521 600 41,000  Level Fort Worth Center
Fri 09:18:32 AM 35.3375 -97.3475 94° East 545 627 41,000  Level Fort Worth Center
Fri 09:19:32 AM 35.3100 -97.1669 101° East 537 618 41,000  Level Fort Worth Center
Fri 09:20:32 AM 35.2931 -96.9939 97° East 537 618 41,000  Level Fort Worth Center
Fri 09:21:32 AM 35.2733 -96.8133 98° East 532 612 41,000  Level Fort Worth Center
Fri 09:22:32 AM 35.2536 -96.6356 98° East 532 612 41,000  Level Fort Worth Center
Fri 09:23:32 AM 35.2336 -96.4578 98° East 532 612 41,000  Level Fort Worth Center
Fri 09:24:32 AM 35.2133 -96.2753 98° East 532 612 41,000  Level Fort Worth Center
Fri 09:25:32 AM 35.1928 -96.0950 98° East 537 618 41,000  Level Fort Worth Center
Fri 09:26:32 AM 35.1719 -95.9150 98° East 537 618 41,000  Level Fort Worth Center
Fri 09:27:32 AM 35.1556 -95.7606 97° East 524 603 41,000  Level Fort Worth Center
Fri 09:28:32 AM 35.1344 -95.5833 98° East 524 603 41,000  Level Fort Worth Center
Fri 09:29:32 AM 35.1128 -95.4033 98° East 524 603 41,000  Level Fort Worth Center
Fri 09:31:58 AM 35.0561 -94.9536 99° East 511 588 41,000 -174 Level Memphis Center
Fri 09:32:59 AM 35.0314 -94.7772 100° East 521 600 40,400 -1,091 Descending Memphis Center
Fri 09:33:59 AM 35.0122 -94.6039 98° East 545 627 38,800 -1,815 Descending Memphis Center
Fri 09:34:58 AM 34.9875 -94.4125 99° East 565 650 36,800 -2,000 Descending Memphis Center
Fri 09:35:59 AM 34.9642 -94.2239 99° East 565 650 34,800 -1,983 Descending Memphis Center
Fri 09:36:59 AM 34.9386 -94.0353 99° East 565 650 32,800 -2,017 Descending Memphis Center
Fri 09:37:58 AM 34.9147 -93.8494 99° East 565 650 30,800 -2,150 Descending Memphis Center
Fri 09:38:59 AM 34.8906 -93.6636 99° East 565 650 28,500 -2,975 Descending Memphis Center
Fri 09:39:59 AM 34.8603 -93.4625 100° East 558 642 24,800 -3,400 Descending Memphis Center
Fri 09:40:59 AM 34.8375 -93.2869 99° East 543 625 21,700 -3,126 Descending Memphis Center
Fri 09:41:58 AM 34.8142 -93.1219 100° East 525 604 18,600 -2,824 Descending Memphis Center
Fri 09:42:58 AM 34.7942 -92.9744 99° East 481 554 16,100 -2,476 Descending Memphis Center
Fri 09:43:01 AM 34.7903 -92.9694 133° Southeast 435 501 16,000 -176 Descending Memphis Center
Fri 09:43:32 AM 34.7811 -92.9058 100° East 390 449 16,000 -724 Level Memphis Center
Fri 09:43:59 AM 34.7761 -92.8475 96° East 426 490 15,300 -2,100 Descending Memphis Center
Fri 09:44:32 AM 34.7647 -92.7814 102° East 348 400 13,900 -2,237 Descending Memphis Center
Fri 09:44:58 AM 34.7575 -92.7281 99° East 380 437 13,100 -1,636 Descending Memphis Center
Fri 09:45:27 AM 34.7481 -92.6747 102° East 350 403 12,400 -1,672 Descending Memphis Center
Fri 09:45:59 AM 34.7533 -92.6169 84° East 351 404 11,400 -2,149 Descending Memphis Center
Fri 09:46:34 AM 34.7606 -92.5589 81° East 308 354 10,000 -2,400 Descending Memphis Center
Fri 09:46:59 AM 34.7697 -92.5161 75° East 312 359 9,000 -2,800 Descending Memphis Center
Fri 09:47:34 AM 34.7769 -92.4633 81° East 290 334 7,200 -3,000 Descending Memphis Center
Fri 09:47:59 AM 34.7817 -92.4228 82° East 293 337 6,000 -2,557 Descending Memphis Center
Fri 09:48:35 AM 34.7931 -92.3725 75° East 255 293 4,600 -1,600 Descending Memphis Center
Fri 09:48:59 AM 34.7997 -92.3425 75° East 268 308 4,400 -1,222 Descending Memphis Center
Fri 09:49:29 AM 34.7939 -92.3094 102° East 198 228 3,500 -1,800 Descending Memphis Center
Fri 09:49:59 AM 34.7967 -92.2742 85° East 227 261 2,600 -1,869 Descending Memphis Center
Fri 09:50:30 AM 34.7844 -92.2511 123° Southeast 169 194 1,600 -1,700 Descending Memphis Center
Fri 09:50:59 AM 34.7681 -92.2381 147° Southeast 143 165 900 -1,180 Descending Memphis Center
Fri 09:51:31 AM 34.7450 -92.2400 184° South 124 143 400 -400 Descending Memphis Center
Fri 09:51:59 AM 34.7475 -92.2072 85° East 135 155 500 214 Climbing Memphis Center
Fri 09:58:00 AM 34.7294 -92.2248 125° Southeast  Level Estimated

Login

Don't have an account? Register now (free) for customized features, flight alerts, and more!